createdAt,value
2022-07-30T00:00:06.190Z,22.29
2022-07-30T00:03:11.620Z,22.24
2022-07-30T00:06:17.813Z,22.21
2022-07-30T00:09:23.311Z,22.20
2022-07-30T00:12:28.963Z,22.19
2022-07-30T00:15:34.841Z,22.19
2022-07-30T00:18:40.393Z,22.19
2022-07-30T00:21:48.827Z,22.18
2022-07-30T00:24:54.303Z,22.16
2022-07-30T00:28:00.074Z,22.11
2022-07-30T00:31:05.573Z,22.05
2022-07-30T00:34:13.045Z,22.00
2022-07-30T00:37:18.512Z,21.93
2022-07-30T00:40:24.240Z,21.87
2022-07-30T00:43:29.729Z,21.82
2022-07-30T00:46:35.216Z,21.79
2022-07-30T00:49:44.254Z,21.78
2022-07-30T00:52:50.023Z,21.79
2022-07-30T00:55:55.508Z,21.80
2022-07-30T00:59:01.109Z,21.81
2022-07-30T01:02:06.773Z,21.83
2022-07-30T01:05:13.479Z,21.87
2022-07-30T01:08:19.144Z,21.88
2022-07-30T01:11:30.086Z,21.85
2022-07-30T01:14:37.374Z,21.80
2022-07-30T01:17:43.631Z,21.77
2022-07-30T01:21:00.922Z,21.78
2022-07-30T01:24:21.904Z,21.81
2022-07-30T01:27:29.995Z,21.79
2022-07-30T01:30:39.852Z,21.74
2022-07-30T01:33:49.190Z,21.68
2022-07-30T01:36:55.942Z,21.63
2022-07-30T01:40:01.900Z,21.60
2022-07-30T01:43:08.153Z,21.59
2022-07-30T01:46:14.959Z,21.56
2022-07-30T01:49:22.863Z,21.62
2022-07-30T01:52:31.320Z,21.65
2022-07-30T01:55:38.236Z,21.69
2022-07-30T01:58:45.193Z,21.73
2022-07-30T02:01:51.210Z,21.76
2022-07-30T02:04:55.156Z,21.79
2022-07-30T02:08:07.540Z,21.79
2022-07-30T02:11:16.405Z,21.85
2022-07-30T02:14:29.752Z,21.88
2022-07-30T02:17:45.234Z,21.90
2022-07-30T02:20:52.695Z,21.91
2022-07-30T02:23:59.275Z,21.89
2022-07-30T02:27:09.742Z,21.92
2022-07-30T02:30:16.382Z,21.91
2022-07-30T02:33:25.769Z,21.85
2022-07-30T02:36:33.827Z,21.81
2022-07-30T02:39:40.785Z,21.79
2022-07-30T02:42:52.638Z,21.81
2022-07-30T02:45:59.221Z,21.84
2022-07-30T02:49:06.737Z,21.85
2022-07-30T02:52:13.909Z,21.87
2022-07-30T02:55:20.980Z,21.88
2022-07-30T02:58:29.013Z,21.89
2022-07-30T03:01:36.944Z,21.90
2022-07-30T03:04:43.757Z,21.91
2022-07-30T03:07:50.429Z,21.92
2022-07-30T03:10:57.166Z,21.92
2022-07-30T03:14:03.084Z,21.91
2022-07-30T03:17:08.500Z,21.92
2022-07-30T03:20:18.547Z,21.88
2022-07-30T03:23:26.769Z,21.89
2022-07-30T03:26:34.768Z,21.89
2022-07-30T03:29:42.809Z,21.90
2022-07-30T03:32:49.292Z,21.90
2022-07-30T03:35:55.425Z,21.90
2022-07-30T03:39:01.279Z,21.89
2022-07-30T03:42:07.730Z,21.88
2022-07-30T03:45:15.199Z,21.88
2022-07-30T03:48:21.248Z,21.88
2022-07-30T03:51:25.888Z,21.87
2022-07-30T03:54:38.948Z,21.85
2022-07-30T03:57:44.922Z,21.88
2022-07-30T04:00:50.583Z,21.88
2022-07-30T04:03:54.720Z,21.87
2022-07-30T04:07:00.857Z,21.88
2022-07-30T04:10:08.396Z,21.91
2022-07-30T04:13:16.062Z,21.91
2022-07-30T04:16:39.447Z,21.92
2022-07-30T04:19:52.176Z,21.90
2022-07-30T04:22:58.732Z,21.93
2022-07-30T04:26:04.460Z,21.95
2022-07-30T04:29:13.344Z,21.97
2022-07-30T04:32:20.603Z,21.98
2022-07-30T04:35:51.641Z,22.00
2022-07-30T04:38:56.566Z,22.02
2022-07-30T04:42:02.045Z,22.06
2022-07-30T04:45:09.655Z,22.09
2022-07-30T04:48:17.359Z,22.11
2022-07-30T04:51:27.603Z,22.13
2022-07-30T04:54:39.576Z,22.15
2022-07-30T04:57:47.242Z,22.14
2022-07-30T05:00:55.614Z,22.14
2022-07-30T05:04:02.583Z,22.14
2022-07-30T05:07:09.076Z,22.13
2022-07-30T05:10:15.567Z,22.14
2022-07-30T05:13:22.304Z,22.16
2022-07-30T05:16:29.745Z,22.17
2022-07-30T05:19:35.429Z,22.18
2022-07-30T05:22:42.889Z,22.21
2022-07-30T05:25:56.667Z,22.22
2022-07-30T05:29:04.118Z,22.23
2022-07-30T05:32:12.821Z,22.26
2022-07-30T05:35:18.534Z,22.29
2022-07-30T05:38:24.752Z,22.27
2022-07-30T05:41:34.454Z,22.24
2022-07-30T05:44:40.005Z,22.23
2022-07-30T05:47:45.600Z,22.24
2022-07-30T05:50:51.061Z,22.28
2022-07-30T05:53:56.521Z,22.34
2022-07-30T05:57:02.307Z,22.40
2022-07-30T06:00:10.886Z,22.45
2022-07-30T06:03:16.504Z,22.50
2022-07-30T06:06:23.337Z,22.54
2022-07-30T06:09:37.158Z,22.59
2022-07-30T06:12:43.543Z,22.63
2022-07-30T06:15:49.124Z,22.67
2022-07-30T06:18:54.715Z,22.71
2022-07-30T06:22:05.436Z,22.75
2022-07-30T06:25:12.997Z,22.78
2022-07-30T06:28:39.826Z,22.81
2022-07-30T06:31:45.431Z,22.84
2022-07-30T06:34:58.682Z,22.87
2022-07-30T06:38:08.265Z,22.92
2022-07-30T06:41:15.818Z,22.98
2022-07-30T06:44:21.302Z,23.03
2022-07-30T06:47:29.315Z,23.06
2022-07-30T06:50:36.991Z,23.09
2022-07-30T06:53:43.000Z,23.12
2022-07-30T06:56:48.624Z,23.16
2022-07-30T06:59:56.732Z,23.22
2022-07-30T07:03:03.037Z,23.23
2022-07-30T07:06:08.789Z,23.28
2022-07-30T07:09:14.413Z,23.33
2022-07-30T07:12:19.992Z,23.39
2022-07-30T07:15:36.233Z,23.47
2022-07-30T07:18:42.708Z,23.58
2022-07-30T07:21:48.962Z,23.68
2022-07-30T07:24:54.418Z,23.80
2022-07-30T07:28:11.680Z,23.91
2022-07-30T07:32:07.117Z,24.03
2022-07-30T07:34:44.483Z,24.17
2022-07-30T07:37:49.935Z,24.28
2022-07-30T07:40:56.099Z,24.38
2022-07-30T07:44:01.664Z,24.48
2022-07-30T07:47:07.728Z,24.58
2022-07-30T07:50:16.253Z,24.66
2022-07-30T07:53:21.694Z,24.73
2022-07-30T07:56:27.161Z,24.77
2022-07-30T07:59:39.848Z,24.81
2022-07-30T08:02:46.726Z,24.84
2022-07-30T08:05:58.016Z,24.86
2022-07-30T08:09:10.363Z,24.88
2022-07-30T08:12:15.986Z,24.89
2022-07-30T08:15:22.181Z,24.92
2022-07-30T08:18:28.018Z,24.97
2022-07-30T08:21:32.034Z,25.01
2022-07-30T08:24:37.614Z,25.03
2022-07-30T08:27:45.153Z,25.09
2022-07-30T08:30:51.024Z,25.14
2022-07-30T08:33:54.961Z,25.21
2022-07-30T08:37:00.521Z,25.25
2022-07-30T08:40:07.896Z,25.35
2022-07-30T08:43:13.615Z,25.43
2022-07-30T08:46:23.198Z,25.47
2022-07-30T08:49:29.022Z,25.50
2022-07-30T08:52:34.141Z,25.56
2022-07-30T08:55:39.617Z,25.60
2022-07-30T08:58:46.787Z,25.71
2022-07-30T09:01:52.656Z,25.82
2022-07-30T09:04:58.182Z,25.94
2022-07-30T09:08:08.839Z,26.03
2022-07-30T09:11:14.631Z,26.13
2022-07-30T09:14:20.052Z,26.21
2022-07-30T09:17:28.850Z,26.25
2022-07-30T09:20:37.979Z,26.30
2022-07-30T09:23:55.806Z,26.35
2022-07-30T09:27:03.129Z,26.40
2022-07-30T09:30:11.273Z,26.44
2022-07-30T09:33:18.477Z,26.47
2022-07-30T09:36:34.295Z,26.52
2022-07-30T09:39:42.754Z,26.55
2022-07-30T09:43:07.695Z,26.59
2022-07-30T09:46:13.804Z,26.65
2022-07-30T09:49:21.079Z,26.71
2022-07-30T09:52:31.453Z,26.74
2022-07-30T09:59:03.947Z,26.71
2022-07-30T10:02:10.846Z,26.71
2022-07-30T10:05:19.311Z,26.76
2022-07-30T10:08:41.874Z,26.82
2022-07-30T10:11:51.611Z,26.87
2022-07-30T10:14:59.334Z,26.89
2022-07-30T10:18:06.794Z,26.92
2022-07-30T10:21:16.960Z,27.03
2022-07-30T10:24:27.621Z,27.15
2022-07-30T10:27:34.973Z,27.24
2022-07-30T10:30:42.132Z,27.36
2022-07-30T10:33:47.632Z,27.49
2022-07-30T10:37:01.755Z,27.62
2022-07-30T10:40:30.673Z,27.75
2022-07-30T10:44:10.003Z,27.83
2022-07-30T10:47:18.848Z,27.94
2022-07-30T10:50:27.198Z,27.87
2022-07-30T10:53:37.976Z,27.55
2022-07-30T10:57:04.181Z,27.32
2022-07-30T11:00:17.950Z,27.39
2022-07-30T11:03:40.177Z,27.84
2022-07-30T11:06:46.827Z,27.80
2022-07-30T11:10:08.656Z,27.57
2022-07-30T11:13:15.317Z,27.41
2022-07-30T11:16:20.338Z,27.31
2022-07-30T11:19:56.707Z,27.26
2022-07-30T11:22:54.221Z,27.19
2022-07-30T11:25:59.873Z,27.29
2022-07-30T11:29:07.221Z,27.78
2022-07-30T11:32:31.993Z,28.11
2022-07-30T11:35:38.302Z,27.92
2022-07-30T11:39:05.200Z,27.71
2022-07-30T11:42:28.719Z,27.52
2022-07-30T11:45:34.401Z,27.39
2022-07-30T11:48:41.845Z,27.28
2022-07-30T11:51:48.937Z,27.16
2022-07-30T11:54:56.267Z,27.07
2022-07-30T11:58:03.572Z,26.96
2022-07-30T12:01:13.699Z,26.88
2022-07-30T12:04:19.368Z,26.82
2022-07-30T12:07:26.398Z,26.78
2022-07-30T12:10:32.025Z,26.76
2022-07-30T12:13:45.477Z,26.74
2022-07-30T12:16:55.824Z,26.79
2022-07-30T12:20:01.253Z,26.86
2022-07-30T12:23:13.160Z,26.95
2022-07-30T12:26:26.888Z,26.98
2022-07-30T12:29:33.287Z,27.01
2022-07-30T12:32:39.106Z,27.03
2022-07-30T12:35:50.223Z,26.98
2022-07-30T12:38:57.940Z,26.93
2022-07-30T12:42:03.600Z,26.92
2022-07-30T12:45:28.544Z,26.89
2022-07-30T12:48:32.473Z,26.85
2022-07-30T12:51:52.297Z,26.86
2022-07-30T12:55:09.005Z,27.28
2022-07-30T12:58:14.594Z,27.75
2022-07-30T13:01:19.106Z,28.03
2022-07-30T13:04:24.747Z,27.87
2022-07-30T13:07:32.227Z,27.69
2022-07-30T13:10:38.233Z,27.61
2022-07-30T13:13:43.760Z,27.56
2022-07-30T13:16:48.398Z,27.48
2022-07-30T13:19:54.055Z,27.36
2022-07-30T13:23:01.999Z,27.17
2022-07-30T13:26:09.341Z,27.02
2022-07-30T13:29:15.139Z,27.06
2022-07-30T13:32:21.257Z,27.53
2022-07-30T13:35:26.721Z,27.97
2022-07-30T13:38:30.664Z,28.28
2022-07-30T13:41:36.868Z,28.46
2022-07-30T13:44:42.308Z,28.46
2022-07-30T13:47:48.543Z,28.07
2022-07-30T13:50:54.033Z,27.73
2022-07-30T13:53:58.607Z,27.54
2022-07-30T13:57:04.424Z,27.40
2022-07-30T14:00:12.839Z,27.38
2022-07-30T14:03:18.372Z,27.72
2022-07-30T14:06:24.402Z,27.97
2022-07-30T14:09:29.877Z,28.11
2022-07-30T14:12:33.998Z,28.21
2022-07-30T14:15:39.646Z,28.19
2022-07-30T14:18:46.429Z,27.87
2022-07-30T14:21:50.448Z,27.32
2022-07-30T14:24:56.024Z,26.85
2022-07-30T14:28:00.046Z,26.41
2022-07-30T14:31:06.398Z,26.04
2022-07-30T14:34:13.167Z,25.66
2022-07-30T14:37:18.837Z,25.46
2022-07-30T14:40:22.951Z,25.67
2022-07-30T14:43:28.427Z,25.70
2022-07-30T14:46:33.976Z,25.63
2022-07-30T14:49:39.532Z,25.54
2022-07-30T14:52:47.263Z,25.43
2022-07-30T14:55:52.814Z,25.36
2022-07-30T14:58:58.968Z,25.31
2022-07-30T15:02:05.296Z,25.23
2022-07-30T15:05:16.216Z,25.13
2022-07-30T15:08:21.980Z,25.06
2022-07-30T15:11:26.016Z,25.03
2022-07-30T15:14:31.755Z,24.93
2022-07-30T15:17:37.594Z,24.90
2022-07-30T15:20:43.144Z,24.87
2022-07-30T15:23:48.544Z,24.91
2022-07-30T15:26:54.948Z,24.93
2022-07-30T15:30:00.982Z,24.94
2022-07-30T15:33:06.554Z,24.97
2022-07-30T15:36:14.552Z,25.01
2022-07-30T15:39:20.004Z,25.06
2022-07-30T15:42:27.355Z,25.12
2022-07-30T15:45:50.119Z,25.17
2022-07-30T15:48:58.465Z,25.21
2022-07-30T15:52:07.289Z,25.27
2022-07-30T15:55:14.099Z,25.33
2022-07-30T15:58:19.863Z,25.39
2022-07-30T16:01:25.339Z,25.42
2022-07-30T16:04:33.080Z,25.45
2022-07-30T16:07:38.776Z,25.49
2022-07-30T16:10:42.774Z,25.53
2022-07-30T16:13:49.525Z,25.53
2022-07-30T16:16:54.963Z,25.57
2022-07-30T16:20:00.529Z,25.58
2022-07-30T16:23:11.783Z,25.57
2022-07-30T16:26:19.059Z,25.54
2022-07-30T16:29:23.018Z,25.50
2022-07-30T16:32:28.854Z,25.46
2022-07-30T16:35:34.532Z,25.45
2022-07-30T16:38:54.984Z,25.42
2022-07-30T16:42:01.037Z,25.37
2022-07-30T16:45:07.917Z,25.30
2022-07-30T16:48:14.272Z,25.26
2022-07-30T16:51:20.131Z,25.22
2022-07-30T16:54:25.775Z,25.18
2022-07-30T16:57:31.277Z,25.13
2022-07-30T17:00:36.836Z,25.08
2022-07-30T17:03:42.356Z,25.04
2022-07-30T17:06:47.852Z,24.97
2022-07-30T17:09:54.235Z,24.89
2022-07-30T17:12:59.860Z,24.81
2022-07-30T17:16:07.752Z,24.76
2022-07-30T17:19:13.395Z,24.72
2022-07-30T17:22:18.984Z,24.68
2022-07-30T17:25:27.493Z,24.65
2022-07-30T17:28:33.161Z,24.61
2022-07-30T17:31:40.017Z,24.60
2022-07-30T17:34:45.668Z,24.60
2022-07-30T17:37:51.420Z,24.56
2022-07-30T17:40:56.970Z,24.48
2022-07-30T17:44:02.520Z,24.39
2022-07-30T17:47:13.769Z,24.29
2022-07-30T17:50:20.197Z,24.25
2022-07-30T17:53:25.698Z,24.25
2022-07-30T17:56:31.176Z,24.24
2022-07-30T17:59:36.628Z,24.19
2022-07-30T18:02:42.251Z,24.12
2022-07-30T18:05:48.039Z,24.10
2022-07-30T18:08:52.376Z,24.12
2022-07-30T18:11:57.884Z,24.07
2022-07-30T18:15:07.413Z,24.08
2022-07-30T18:18:12.844Z,24.10
2022-07-30T18:21:18.399Z,24.10
2022-07-30T18:24:24.879Z,24.08
2022-07-30T18:27:31.125Z,24.02
2022-07-30T18:30:36.577Z,23.95
2022-07-30T18:33:42.078Z,23.89
2022-07-30T18:36:51.127Z,23.84
2022-07-30T18:39:56.821Z,23.79
2022-07-30T18:43:02.773Z,23.73
2022-07-30T18:46:08.799Z,23.65
2022-07-30T18:49:35.714Z,23.54
2022-07-30T18:52:40.171Z,23.40
2022-07-30T18:55:45.844Z,23.30
2022-07-30T18:58:51.281Z,23.28
2022-07-30T19:01:56.936Z,23.22
2022-07-30T19:05:02.585Z,23.15
2022-07-30T19:08:08.652Z,23.05
2022-07-30T19:11:14.181Z,22.99
2022-07-30T19:14:20.272Z,22.98
2022-07-30T19:17:46.681Z,23.00
2022-07-30T19:20:51.942Z,23.03
2022-07-30T19:23:57.388Z,23.04
2022-07-30T19:27:03.072Z,23.05
2022-07-30T19:30:10.269Z,23.05
2022-07-30T19:33:16.567Z,23.06
2022-07-30T19:36:22.104Z,23.06
2022-07-30T19:39:28.621Z,23.08
2022-07-30T19:42:34.291Z,23.08
2022-07-30T19:45:47.091Z,23.08
2022-07-30T19:48:53.732Z,23.10
2022-07-30T19:52:22.506Z,23.10
2022-07-30T19:55:35.854Z,23.09
2022-07-30T19:58:41.984Z,23.10
2022-07-30T20:01:51.721Z,23.10
2022-07-30T20:04:57.508Z,23.07
2022-07-30T20:08:04.396Z,23.09
2022-07-30T20:11:10.903Z,23.09
2022-07-30T20:14:22.969Z,23.11
2022-07-30T20:17:28.528Z,23.13
2022-07-30T20:20:33.987Z,23.16
2022-07-30T20:23:39.720Z,23.17
2022-07-30T20:26:46.891Z,23.18
2022-07-30T20:29:52.332Z,23.19
2022-07-30T20:32:56.911Z,23.20
2022-07-30T20:36:03.813Z,23.17
2022-07-30T20:39:09.521Z,23.20
2022-07-30T20:42:19.159Z,23.21
2022-07-30T20:45:37.891Z,23.22
2022-07-30T20:48:46.425Z,23.22
2022-07-30T20:51:52.855Z,23.21
2022-07-30T20:54:59.326Z,23.20
2022-07-30T20:58:16.270Z,23.18
2022-07-30T21:01:22.466Z,23.18
2022-07-30T21:04:28.252Z,23.19
2022-07-30T21:07:36.734Z,23.21
2022-07-30T21:10:44.422Z,23.21
2022-07-30T21:13:50.495Z,23.16
2022-07-30T21:16:57.373Z,23.09
2022-07-30T21:20:01.898Z,23.04
2022-07-30T21:23:11.509Z,23.00
2022-07-30T21:26:17.346Z,23.01
2022-07-30T21:29:29.090Z,23.01
2022-07-30T21:32:34.576Z,23.02
2022-07-30T21:35:40.119Z,23.03
2022-07-30T21:38:47.366Z,23.05
2022-07-30T21:41:52.818Z,23.07
2022-07-30T21:45:01.488Z,23.09
2022-07-30T21:48:10.876Z,23.06
2022-07-30T21:51:16.780Z,23.05
2022-07-30T21:54:28.831Z,23.05
2022-07-30T21:57:36.611Z,23.04
2022-07-30T22:01:17.491Z,23.02
2022-07-30T22:04:27.600Z,22.95
2022-07-30T22:07:33.233Z,22.88
2022-07-30T22:10:42.876Z,22.83
2022-07-30T22:13:53.989Z,22.80
2022-07-30T22:17:00.522Z,22.79
2022-07-30T22:20:12.542Z,22.77
2022-07-30T22:23:18.120Z,22.73
2022-07-30T22:26:23.780Z,22.67
2022-07-30T22:29:34.024Z,22.62
2022-07-30T22:32:41.301Z,22.62
2022-07-30T22:35:49.625Z,22.62
2022-07-30T22:38:58.415Z,22.61
2022-07-30T22:42:05.520Z,22.61
2022-07-30T22:45:44.880Z,22.59
2022-07-30T22:48:44.574Z,22.57
2022-07-30T22:52:05.079Z,22.55
2022-07-30T22:55:16.252Z,22.52
2022-07-30T22:58:28.827Z,22.49
2022-07-30T23:01:35.993Z,22.44
2022-07-30T23:04:46.861Z,22.39
2022-07-30T23:07:54.645Z,22.33
2022-07-30T23:11:01.208Z,22.27
2022-07-30T23:14:07.721Z,22.22
2022-07-30T23:17:13.977Z,22.16
2022-07-30T23:20:21.431Z,22.10
2022-07-30T23:23:26.884Z,22.06
2022-07-30T23:26:36.649Z,22.05
2022-07-30T23:29:42.060Z,22.03
2022-07-30T23:32:47.499Z,22.00
2022-07-30T23:35:54.118Z,21.99
2022-07-30T23:38:59.857Z,22.00
2022-07-30T23:42:05.537Z,21.97
2022-07-30T23:45:12.364Z,21.94
2022-07-30T23:48:17.917Z,21.88
2022-07-30T23:51:23.769Z,21.81
2022-07-30T23:54:28.999Z,21.78
2022-07-30T23:57:34.496Z,21.72
